Time;durP1;ratioP1;P1;durP2;ratioP2;P2;SDS_P1;SDS_P2;PMS_P1;PMS_P2;Temp;Humidity;BMP_temperature;BMP_pressure;BME280_temperature;BME280_humidity;BME280_pressure;Samples;Min_cycle;Max_cycle;Signal;HPM_P1;HPM_P2
2022/06/10 00:02:37;;;;;;;64.45;59.78;;;;;;;16.72;100.00;100224.88;5005999;28;20054;-85
2022/06/10 00:05:42;;;;;;;55.20;50.17;;;;;;;17.07;100.00;100232.34;5008488;28;20065;-85
2022/06/10 00:08:14;;;;;;;56.13;51.33;;;;;;;16.98;100.00;100241.97;5007397;28;20069;-84
2022/06/10 00:10:45;;;;;;;59.90;54.73;;;;;;;16.65;100.00;100243.88;5003312;28;20046;-85
2022/06/10 00:13:14;;;;;;;64.37;59.27;;;;;;;16.75;100.00;100242.31;5006956;28;20031;-86
2022/06/10 00:15:42;;;;;;;58.13;53.53;;;;;;;16.58;100.00;100239.78;5014591;28;20307;-85
2022/06/10 00:18:10;;;;;;;56.90;52.05;;;;;;;16.59;100.00;100244.88;5009173;28;20050;-85
2022/06/10 00:20:37;;;;;;;56.03;50.95;;;;;;;16.10;100.00;100236.19;5007778;28;20061;-85
2022/06/10 00:23:09;;;;;;;58.15;53.17;;;;;;;15.98;100.00;100233.66;5018077;28;20388;-85
2022/06/10 00:25:37;;;;;;;56.92;52.03;;;;;;;16.39;100.00;100234.81;4993566;28;20054;-84
2022/06/10 00:28:06;;;;;;;65.60;59.75;;;;;;;16.58;100.00;100240.59;5002830;28;20117;-84
2022/06/10 00:30:35;;;;;;;70.65;65.15;;;;;;;16.51;100.00;100231.94;5011492;28;20050;-85
2022/06/10 00:33:03;;;;;;;66.30;60.70;;;;;;;16.51;100.00;100237.31;5009444;28;20065;-86
2022/06/10 00:35:31;;;;;;;58.05;53.15;;;;;;;16.30;100.00;100247.06;5014113;28;20145;-86
2022/06/10 00:37:58;;;;;;;53.78;49.20;;;;;;;16.65;100.00;100246.53;5005396;28;20086;-84
2022/06/10 00:40:33;;;;;;;53.47;48.92;;;;;;;16.89;100.00;100243.53;5011737;28;20030;-85
2022/06/10 00:43:14;;;;;;;54.90;50.63;;;;;;;16.77;100.00;100240.22;5004404;28;20392;-84
2022/06/10 00:46:06;;;;;;;59.30;54.30;;;;;;;16.52;100.00;100236.28;5002769;28;20078;-84
2022/06/10 00:48:41;;;;;;;61.20;55.35;;;;;;;16.19;100.00;100240.03;4990294;28;20046;-85
2022/06/10 00:51:19;;;;;;;75.78;70.15;;;;;;;16.24;100.00;100240.84;5016977;28;20050;-86
2022/06/10 00:53:50;;;;;;;63.00;57.85;;;;;;;16.24;100.00;100235.50;5014502;28;20046;-85
2022/06/10 00:56:22;;;;;;;67.22;61.85;;;;;;;16.36;100.00;100243.34;5010116;28;20057;-84
2022/06/10 00:58:56;;;;;;;60.00;55.08;;;;;;;15.97;100.00;100245.41;5005526;28;20046;-84
2022/06/10 01:01:23;;;;;;;56.83;52.33;;;;;;;16.06;100.00;100246.56;5014949;28;20046;-86
2022/06/10 01:03:51;;;;;;;57.65;53.15;;;;;;;15.57;100.00;100247.38;5016482;28;20053;-86
2022/06/10 01:06:18;;;;;;;57.30;52.50;;;;;;;15.71;100.00;100239.00;5011419;28;20052;-85
2022/06/10 01:08:48;;;;;;;57.88;52.97;;;;;;;16.12;100.00;100237.53;5014209;28;20046;-85
2022/06/10 01:11:36;;;;;;;54.38;49.70;;;;;;;16.16;100.00;100235.16;5010525;28;20060;-85
2022/06/10 01:14:18;;;;;;;55.92;51.22;;;;;;;16.33;100.00;100241.19;4973398;28;20049;-86
2022/06/10 01:16:54;;;;;;;51.85;47.33;;;;;;;16.31;100.00;100237.97;5006241;28;20046;-84
2022/06/10 01:19:46;;;;;;;54.65;49.97;;;;;;;15.87;100.00;100243.44;5007508;28;20046;-85
2022/06/10 01:23:02;;;;;;;54.08;48.97;;;;;;;15.44;100.00;100250.44;5017076;28;20121;-86
2022/06/10 01:25:50;;;;;;;62.50;57.22;;;;;;;15.90;100.00;100248.31;5013108;28;20056;-84
2022/06/10 01:28:31;;;;;;;61.33;55.70;;;;;;;15.87;100.00;100242.66;5005953;28;20456;-85
2022/06/10 01:31:13;;;;;;;59.17;53.97;;;;;;;15.84;100.00;100245.84;5020118;28;20060;-84
2022/06/10 01:33:59;;;;;;;60.22;54.78;;;;;;;16.06;100.00;100246.56;5008401;28;20046;-86
2022/06/10 01:36:45;;;;;;;55.55;50.78;;;;;;;16.09;100.00;100232.69;5015035;28;20066;-86
2022/06/10 01:39:25;;;;;;;55.60;50.90;;;;;;;15.48;100.00;100234.69;5019431;28;20050;-86
2022/06/10 01:41:58;;;;;;;62.42;57.05;;;;;;;15.35;100.00;100235.88;5001349;28;20470;-84
2022/06/10 01:44:34;;;;;;;65.93;60.45;;;;;;;15.74;100.00;100241.19;5008258;28;20061;-85
2022/06/10 01:47:08;;;;;;;73.72;67.82;;;;;;;15.91;100.00;100241.88;5011536;28;20042;-86
2022/06/10 01:49:41;;;;;;;71.10;65.15;;;;;;;16.36;100.00;100237.19;4998809;28;20043;-84
2022/06/10 01:52:15;;;;;;;63.40;58.50;;;;;;;16.37;100.00;100244.16;5016683;28;20058;-85
2022/06/10 01:54:50;;;;;;;64.95;59.78;;;;;;;15.97;100.00;100246.22;5011100;28;20046;-86
2022/06/10 01:57:26;;;;;;;64.05;58.78;;;;;;;15.81;100.00;100255.16;5015256;28;20077;-87
2022/06/10 01:59:59;;;;;;;76.13;70.35;;;;;;;16.05;100.00;100249.53;5019021;28;20045;-84
2022/06/10 02:05:02;;;;;;;68.85;62.92;;;;;;;15.86;100.00;100241.03;5022169;28;20050;-85
2022/06/10 02:07:33;;;;;;;61.65;56.40;;;;;;;15.44;100.00;100242.41;5019899;28;20060;-87
2022/06/10 02:10:06;;;;;;;64.60;58.90;;;;;;;15.67;100.00;100251.22;5019679;28;20053;-85
2022/06/10 02:12:40;;;;;;;72.07;65.85;;;;;;;15.85;100.00;100253.59;5009029;28;20073;-86
2022/06/10 02:15:12;;;;;;;71.25;64.80;;;;;;;15.83;100.00;100255.75;5026412;28;20527;-86
2022/06/10 02:17:48;;;;;;;72.00;65.75;;;;;;;15.45;100.00;100262.75;5026571;28;20081;-85
2022/06/10 02:20:23;;;;;;;93.35;86.15;;;;;;;15.84;100.00;100260.03;5023909;28;20049;-85
2022/06/10 02:22:53;;;;;;;68.95;63.15;;;;;;;15.58;100.00;100261.56;5022291;28;20056;-86
2022/06/10 02:25:25;;;;;;;64.47;58.88;;;;;;;16.02;100.00;100266.91;4983798;28;20057;-84
2022/06/10 02:27:59;;;;;;;61.60;56.20;;;;;;;15.92;100.00;100266.81;5044072;28;20049;-86
2022/06/10 02:30:30;;;;;;;67.18;61.25;;;;;;;15.96;100.00;100284.78;5017498;28;20049;-85
2022/06/10 02:32:59;;;;;;;62.75;57.65;;;;;;;15.87;100.00;100277.47;5023644;28;20060;-85
2022/06/10 02:35:44;;;;;;;59.72;54.63;;;;;;;16.02;100.00;100294.50;5019636;28;20468;-86
2022/06/10 02:38:29;;;;;;;61.03;55.83;;;;;;;16.07;100.00;100299.09;5024782;28;20061;-85
2022/06/10 02:41:03;;;;;;;57.67;53.05;;;;;;;18.85;100.00;100289.44;5022348;28;20041;-85
2022/06/10 02:43:42;;;;;;;33.58;30.77;;;;;;;19.74;100.00;100287.06;5024565;28;20053;-85
2022/06/10 02:46:17;;;;;;;33.58;30.98;;;;;;;18.37;100.00;100278.94;5010339;28;20053;-81
2022/06/10 02:48:52;;;;;;;41.55;38.25;;;;;;;16.54;100.00;100285.06;5014869;28;20077;-82
2022/06/10 02:51:25;;;;;;;49.53;45.10;;;;;;;16.54;100.00;100293.09;5014932;28;20478;-84
2022/06/10 02:53:52;;;;;;;58.03;53.53;;;;;;;16.58;100.00;100293.38;5010133;28;20489;-82
2022/06/10 02:56:22;;;;;;;62.40;56.80;;;;;;;16.49;100.00;100307.28;5013002;28;20050;-84
2022/06/10 03:01:47;;;;;;;74.40;67.38;;;;;;;16.48;100.00;100305.66;5009529;28;20413;-83
2022/06/10 03:04:26;;;;;;;85.55;78.15;;;;;;;16.53;100.00;100302.22;5014044;28;20132;-82
2022/06/10 03:07:11;;;;;;;72.25;65.25;;;;;;;16.63;100.00;100307.66;5009549;28;20060;-82
2022/06/10 03:09:53;;;;;;;78.18;70.65;;;;;;;16.76;100.00;100316.34;5010629;28;20426;-84
2022/06/10 03:12:28;;;;;;;74.40;67.20;;;;;;;16.74;100.00;100319.28;5014072;28;20054;-84
2022/06/10 03:15:08;;;;;;;81.68;74.15;;;;;;;16.72;100.00;100322.19;5011675;28;20045;-86
2022/06/10 03:17:44;;;;;;;80.38;72.60;;;;;;;16.85;100.00;100322.88;5012201;28;20474;-83
2022/06/10 03:20:19;;;;;;;84.75;76.82;;;;;;;16.99;100.00;100325.94;5013516;28;20053;-84
2022/06/10 03:23:12;;;;;;;78.95;71.55;;;;;;;17.06;100.00;100329.19;5010541;28;20119;-83
2022/06/10 03:25:43;;;;;;;82.78;74.40;;;;;;;17.23;100.00;100332.53;5009018;28;20053;-82
2022/06/10 03:28:14;;;;;;;85.72;77.47;;;;;;;17.22;100.00;100324.75;5014713;28;20057;-83
2022/06/10 03:30:48;;;;;;;84.03;75.28;;;;;;;17.47;100.00;100332.13;5010769;28;20077;-83
2022/06/10 03:33:22;;;;;;;90.03;80.95;;;;;;;17.58;100.00;100331.13;5012187;28;20050;-84
2022/06/10 03:35:53;;;;;;;92.25;83.28;;;;;;;17.67;100.00;100328.72;5011873;28;20050;-82
2022/06/10 03:38:22;;;;;;;91.82;83.18;;;;;;;17.68;100.00;100328.47;5011425;28;20137;-84
2022/06/10 03:40:54;;;;;;;93.97;84.82;;;;;;;17.69;100.00;100332.75;5012462;28;20050;-83
2022/06/10 03:43:22;;;;;;;105.15;95.32;;;;;;;17.78;100.00;100338.47;5014006;28;20046;-85
2022/06/10 03:45:53;;;;;;;93.38;84.20;;;;;;;17.66;100.00;100335.16;5012211;28;20116;-85
2022/06/10 03:48:24;;;;;;;99.68;89.93;;;;;;;17.73;100.00;100336.56;5008705;28;20128;-82
2022/06/10 03:50:51;;;;;;;87.53;78.55;;;;;;;17.77;100.00;100343.03;5012680;28;20048;-84
2022/06/10 03:53:22;;;;;;;92.85;84.03;;;;;;;17.85;100.00;100339.00;5010497;28;20050;-83
2022/06/10 03:55:50;;;;;;;92.50;83.47;;;;;;;17.75;100.00;100344.31;5008988;28;20053;-84
2022/06/10 03:58:17;;;;;;;92.53;83.53;;;;;;;17.90;100.00;100338.25;5013601;28;20053;-85
2022/06/10 04:00:45;;;;;;;86.82;78.38;;;;;;;17.90;100.00;100347.09;5010894;28;20042;-84
2022/06/10 04:03:12;;;;;;;92.55;83.28;;;;;;;18.45;100.00;100336.75;5008839;28;20045;-83
2022/06/10 04:05:39;;;;;;;86.93;78.00;;;;;;;18.19;100.00;100342.09;5010609;28;20045;-83
2022/06/10 04:08:07;;;;;;;95.68;86.85;;;;;;;18.36;100.00;100341.03;5008929;28;20042;-85
2022/06/10 04:10:36;;;;;;;92.10;82.93;;;;;;;18.40;100.00;100352.91;5011200;28;20046;-83
2022/06/10 04:13:03;;;;;;;94.65;84.88;;;;;;;18.57;100.00;100348.06;5012415;28;20053;-83
2022/06/10 04:15:30;;;;;;;93.97;84.90;;;;;;;18.67;100.00;100345.38;5010693;28;20112;-84
2022/06/10 04:17:58;;;;;;;100.50;91.60;;;;;;;18.72;100.00;100352.63;5011837;28;20054;-82
2022/06/10 04:20:28;;;;;;;86.22;78.15;;;;;;;18.81;100.00;100358.31;5002972;28;20074;-85
2022/06/10 04:22:54;;;;;;;92.72;84.60;;;;;;;18.75;100.00;100354.81;5011202;28;20474;-84
2022/06/10 04:25:22;;;;;;;92.28;83.80;;;;;;;18.90;100.00;100354.81;5008096;28;20054;-83
2022/06/10 04:27:51;;;;;;;85.70;77.88;;;;;;;18.87;100.00;100360.75;5014129;28;20058;-85
2022/06/10 04:30:25;;;;;;;86.55;78.70;;;;;;;18.81;100.00;100361.81;5010622;28;20417;-83
2022/06/10 04:32:52;;;;;;;81.00;73.20;;;;;;;18.99;100.00;100363.16;5013162;28;20057;-83
2022/06/10 04:35:19;;;;;;;78.75;70.85;;;;;;;18.97;100.00;100365.31;5010693;28;20128;-84
2022/06/10 04:37:48;;;;;;;74.75;67.18;;;;;;;19.10;100.00;100364.78;5011816;28;20042;-83
2022/06/10 04:40:17;;;;;;;72.20;65.13;;;;;;;19.15;100.00;100362.09;5012839;28;20107;-83
2022/06/10 04:42:45;;;;;;;77.05;69.18;;;;;;;18.86;100.00;100361.81;5014289;28;20046;-85
2022/06/10 04:45:14;;;;;;;78.55;70.57;;;;;;;18.98;100.00;100356.16;5011823;28;20049;-82
2022/06/10 04:47:41;;;;;;;73.40;66.30;;;;;;;19.11;100.00;100362.88;5007636;28;20042;-83
2022/06/10 04:50:10;;;;;;;74.78;67.38;;;;;;;19.00;100.00;100348.63;5012429;28;20041;-83
2022/06/10 04:52:37;;;;;;;74.25;66.60;;;;;;;19.25;100.00;100365.84;5010178;28;20042;-83
2022/06/10 04:58:25;;;;;;;81.78;72.80;;;;;;;19.14;100.00;100383.88;5012044;28;20044;-83
2022/06/10 05:00:54;;;;;;;78.15;70.72;;;;;;;19.71;100.00;100380.00;5010654;28;20046;-84
2022/06/10 05:03:21;;;;;;;75.05;67.35;;;;;;;19.01;100.00;100382.53;5007795;28;20041;-84
2022/06/10 05:05:48;;;;;;;76.05;68.32;;;;;;;19.67;100.00;100374.38;5011008;28;20049;-84
2022/06/10 05:08:18;;;;;;;79.65;71.82;;;;;;;19.69;100.00;100376.78;5009001;28;20053;-86
2022/06/10 05:10:45;;;;;;;69.25;62.42;;;;;;;20.26;100.00;100371.94;5012297;28;20484;-84
2022/06/10 05:13:12;;;;;;;73.03;65.63;;;;;;;19.82;100.00;100378.09;5013554;28;20133;-83
2022/06/10 05:15:39;;;;;;;72.95;65.85;;;;;;;19.36;100.00;100378.97;5010546;28;20057;-86
2022/06/10 05:18:08;;;;;;;74.78;67.28;;;;;;;19.92;100.00;100382.63;5011821;28;20042;-83
2022/06/10 05:20:37;;;;;;;70.18;63.15;;;;;;;19.99;100.00;100385.84;5011271;28;20049;-86
2022/06/10 05:23:04;;;;;;;67.68;60.83;;;;;;;19.97;100.00;100391.50;5012001;28;20541;-84
2022/06/10 05:25:33;;;;;;;74.75;67.43;;;;;;;19.86;100.00;100400.72;5014649;28;20050;-83
2022/06/10 05:28:00;;;;;;;73.55;66.35;;;;;;;19.89;100.00;100403.66;5016638;28;20064;-83
2022/06/10 05:30:30;;;;;;;74.60;67.15;;;;;;;19.77;100.00;100410.44;5015119;28;20115;-85
2022/06/10 05:32:58;;;;;;;71.35;64.53;;;;;;;19.81;100.00;100406.91;5008876;28;20041;-84
2022/06/10 05:35:26;;;;;;;71.53;64.72;;;;;;;19.77;100.00;100415.84;5007999;28;20046;-84
2022/06/10 05:37:53;;;;;;;74.03;66.75;;;;;;;19.56;100.00;100420.44;5009731;28;20504;-83
2022/06/10 05:40:21;;;;;;;74.47;67.47;;;;;;;19.94;100.00;100415.50;5006399;28;20062;-84
2022/06/10 05:42:49;;;;;;;72.03;64.53;;;;;;;19.71;100.00;100417.72;5012397;28;20042;-85
2022/06/10 05:45:17;;;;;;;79.10;71.82;;;;;;;19.76;100.00;100416.91;5005808;28;20050;-83
2022/06/10 05:47:46;;;;;;;77.28;70.25;;;;;;;19.90;100.00;100416.03;5007210;28;20050;-84
2022/06/10 05:50:15;;;;;;;76.45;69.05;;;;;;;20.51;100.00;100419.53;5006105;28;20474;-85
2022/06/10 05:52:44;;;;;;;54.40;49.25;;;;;;;21.00;100.00;100421.41;5008179;28;20061;-84
2022/06/10 05:55:12;;;;;;;62.83;56.72;;;;;;;20.27;100.00;100425.63;5009606;28;20054;-82
2022/06/10 05:57:39;;;;;;;65.28;58.95;;;;;;;20.40;100.00;100423.38;5003679;28;20058;-83
2022/06/10 06:00:13;;;;;;;58.67;53.15;;;;;;;21.10;100.00;100417.81;5006861;28;20046;-84
2022/06/10 06:02:40;;;;;;;61.13;55.40;;;;;;;20.31;100.00;100418.56;5006020;28;20089;-85
2022/06/10 06:05:09;;;;;;;63.92;56.95;;;;;;;20.48;100.00;100428.19;5006940;28;20050;-84
2022/06/10 06:07:36;;;;;;;65.75;59.83;;;;;;;20.27;100.00;100432.88;5007594;28;20050;-82
2022/06/10 06:10:06;;;;;;;66.80;61.00;;;;;;;20.42;100.00;100434.69;5006736;28;20057;-83
2022/06/10 06:12:34;;;;;;;69.53;63.38;;;;;;;20.43;100.00;100444.41;5009444;28;20057;-83
2022/06/10 06:15:01;;;;;;;67.25;61.05;;;;;;;20.70;100.00;100444.81;5010495;28;20165;-84
2022/06/10 06:17:28;;;;;;;72.10;65.88;;;;;;;20.77;100.00;100436.41;5001976;28;20054;-84
2022/06/10 06:19:55;;;;;;;64.00;58.25;;;;;;;20.66;100.00;100441.03;5009283;28;20049;-83
2022/06/10 06:22:22;;;;;;;68.18;62.17;;;;;;;20.84;100.00;100444.19;5009088;28;20132;-85
2022/06/10 06:24:49;;;;;;;72.07;65.90;;;;;;;20.98;100.00;100440.56;5005558;28;20050;-85
2022/06/10 06:27:17;;;;;;;65.45;59.42;;;;;;;21.03;100.00;100431.63;5005641;28;20138;-84
2022/06/10 06:29:45;;;;;;;66.10;60.35;;;;;;;21.18;100.00;100428.78;5002025;28;20050;-85
2022/06/10 06:32:12;;;;;;;65.63;59.47;;;;;;;21.13;100.00;100426.13;5005678;28;20046;-85
2022/06/10 06:34:40;;;;;;;61.67;55.97;;;;;;;21.16;100.00;100435.56;5010235;28;20498;-83
2022/06/10 06:37:09;;;;;;;61.97;56.30;;;;;;;20.86;100.00;100439.31;5006366;28;20038;-84
2022/06/10 06:39:36;;;;;;;65.68;59.55;;;;;;;20.61;100.00;100441.09;5007528;28;20061;-84
2022/06/10 06:42:04;;;;;;;65.25;59.10;;;;;;;21.16;100.00;100449.06;5005302;28;20057;-84
2022/06/10 06:44:33;;;;;;;68.53;61.85;;;;;;;20.97;100.00;100452.47;5003406;28;20073;-85
2022/06/10 06:47:00;;;;;;;71.75;65.07;;;;;;;20.66;100.00;100449.13;5005636;28;20053;-85
2022/06/10 06:49:40;;;;;;;73.53;67.00;;;;;;;20.96;100.00;100445.44;5008660;28;20137;-85
2022/06/10 06:52:08;;;;;;;58.90;53.40;;;;;;;21.61;100.00;100438.97;4998782;28;20053;-84
2022/06/10 06:54:36;;;;;;;65.22;58.67;;;;;;;21.35;100.00;100444.56;5007754;28;20058;-83
2022/06/10 06:57:03;;;;;;;65.22;58.85;;;;;;;21.17;100.00;100440.66;5007390;28;20050;-82
2022/06/10 06:59:30;;;;;;;65.93;59.03;;;;;;;21.58;100.00;100444.94;5012241;28;20054;-82
2022/06/10 07:01:59;;;;;;;65.82;59.58;;;;;;;22.01;100.00;100442.31;5007716;28;20053;-84
2022/06/10 07:04:26;;;;;;;57.05;51.45;;;;;;;22.25;100.00;100445.81;5002897;28;20058;-86
2022/06/10 07:06:53;;;;;;;63.97;58.33;;;;;;;22.29;100.00;100452.25;5007107;28;20041;-85
2022/06/10 07:09:20;;;;;;;56.75;51.83;;;;;;;22.30;100.00;100456.56;5006019;28;20059;-84
2022/06/10 07:11:47;;;;;;;55.95;50.75;;;;;;;22.60;100.00;100451.81;5006641;28;20053;-84
2022/06/10 07:14:14;;;;;;;54.08;49.38;;;;;;;22.31;100.00;100444.66;5010031;28;20042;-85
2022/06/10 07:16:41;;;;;;;54.15;49.20;;;;;;;21.84;100.00;100442.75;5008085;28;20081;-84
2022/06/10 07:19:11;;;;;;;54.63;50.17;;;;;;;22.17;100.00;100451.84;5001899;28;20392;-84
2022/06/10 07:21:37;;;;;;;55.20;50.45;;;;;;;22.20;100.00;100447.78;5004922;28;20045;-83
2022/06/10 07:24:05;;;;;;;52.22;47.90;;;;;;;22.79;100.00;100449.94;5005351;28;20398;-84
2022/06/10 07:26:32;;;;;;;47.63;43.53;;;;;;;22.92;100.00;100442.16;5002323;28;20045;-84
2022/06/10 07:28:59;;;;;;;48.35;43.63;;;;;;;22.69;100.00;100458.19;5012191;28;20456;-85
2022/06/10 07:31:28;;;;;;;44.30;40.80;;;;;;;23.20;100.00;100462.03;5012120;28;20060;-84
2022/06/10 07:33:54;;;;;;;46.45;42.45;;;;;;;22.93;100.00;100460.00;5005556;28;20042;-83
2022/06/10 07:36:23;;;;;;;47.67;43.75;;;;;;;22.55;100.00;100452.72;5001029;28;20065;-84
2022/06/10 07:38:49;;;;;;;46.13;42.15;;;;;;;22.58;100.00;100454.03;5000302;28;20047;-85
2022/06/10 07:44:01;;;;;;;41.10;37.85;;;;;;;23.23;100.00;100448.69;4997869;28;20053;-83
2022/06/10 07:46:28;;;;;;;39.83;36.67;;;;;;;23.22;100.00;100460.66;5006645;28;20084;-83
2022/06/10 07:48:54;;;;;;;44.40;40.80;;;;;;;22.71;100.00;100458.69;5004214;28;20477;-84
2022/06/10 07:51:23;;;;;;;48.80;44.95;;;;;;;22.58;100.00;100468.38;5004314;28;20065;-83
2022/06/10 07:53:51;;;;;;;45.92;42.03;;;;;;;23.09;100.00;100464.94;5006040;28;20403;-84
2022/06/10 07:56:20;;;;;;;48.88;44.67;;;;;;;23.19;100.00;100455.81;5002998;28;20061;-84
2022/06/10 07:58:48;;;;;;;43.88;39.95;;;;;;;23.73;100.00;100453.56;5011766;28;20061;-85
2022/06/10 08:01:15;;;;;;;39.17;35.92;;;;;;;24.00;100.00;100455.47;4998569;28;20166;-88
2022/06/10 08:03:42;;;;;;;41.42;37.83;;;;;;;23.91;100.00;100452.66;5001447;28;20050;-86
2022/06/10 08:06:09;;;;;;;40.20;36.90;;;;;;;23.90;100.00;100453.75;5003605;28;20061;-84
2022/06/10 08:08:37;;;;;;;39.35;36.13;;;;;;;24.07;100.00;100452.34;5001588;28;20398;-84
2022/06/10 08:11:04;;;;;;;37.53;34.53;;;;;;;23.95;100.00;100467.22;5004231;28;20042;-82
2022/06/10 08:13:30;;;;;;;34.83;32.20;;;;;;;24.38;100.00;100455.22;5004213;28;20438;-85
2022/06/10 08:15:58;;;;;;;35.45;32.40;;;;;;;24.06;100.00;100462.41;5003265;28;20115;-84
2022/06/10 08:18:25;;;;;;;36.88;32.33;;;;;;;23.86;100.00;100457.38;5002910;28;20411;-83
2022/06/10 08:23:41;;;;;;;35.88;33.17;;;;;;;23.82;100.00;100469.94;5002117;28;20057;-84
2022/06/10 08:26:10;;;;;;;38.80;35.95;;;;;;;23.47;100.00;100469.44;5007929;28;20054;-86
2022/06/10 08:28:37;;;;;;;33.55;30.95;;;;;;;23.87;100.00;100467.91;4996236;28;20046;-83
2022/06/10 08:31:04;;;;;;;36.03;33.28;;;;;;;23.47;100.00;100464.00;5004157;28;20054;-83
2022/06/10 08:33:31;;;;;;;37.80;35.30;;;;;;;23.92;100.00;100467.81;5005389;28;20062;-83
2022/06/10 08:35:59;;;;;;;37.47;35.00;;;;;;;24.08;100.00;100478.34;5005918;28;20489;-83
2022/06/10 08:38:26;;;;;;;39.58;36.58;;;;;;;23.77;100.00;100474.31;5005950;28;20113;-83
2022/06/10 08:41:01;;;;;;;38.70;35.83;;;;;;;23.82;100.00;100489.72;5000372;28;20395;-83
2022/06/10 08:43:46;;;;;;;38.75;35.72;;;;;;;23.68;100.00;100486.94;4995306;28;20046;-84
2022/06/10 08:46:34;;;;;;;37.40;34.40;;;;;;;23.80;100.00;100489.19;5003026;28;20089;-83
2022/06/10 08:49:24;;;;;;;36.47;33.90;;;;;;;23.63;100.00;100473.50;4977281;28;20054;-83
2022/06/10 08:51:59;;;;;;;37.22;34.45;;;;;;;23.99;100.00;100470.94;5003949;28;20085;-86
2022/06/10 08:54:32;;;;;;;37.28;34.53;;;;;;;24.11;100.00;100469.59;5000434;28;20061;-83
2022/06/10 08:57:07;;;;;;;38.67;36.03;;;;;;;24.23;100.00;100473.41;5001232;28;20038;-85
2022/06/10 08:59:39;;;;;;;35.72;32.67;;;;;;;24.45;100.00;100470.00;5007997;28;20060;-82
2022/06/10 09:02:20;;;;;;;36.05;33.47;;;;;;;24.65;100.00;100462.50;5010914;28;20060;-84
2022/06/10 09:04:54;;;;;;;37.37;34.77;;;;;;;25.31;100.00;100465.59;5004838;28;20140;-83
2022/06/10 09:07:27;;;;;;;35.75;33.03;;;;;;;25.30;100.00;100462.06;5011477;28;20046;-82
2022/06/10 09:09:55;;;;;;;33.90;31.60;;;;;;;25.17;100.00;100462.13;5012225;28;20054;-83
2022/06/10 09:12:38;;;;;;;34.72;32.15;;;;;;;24.90;100.00;100466.53;5006954;28;20061;-85
2022/06/10 09:15:06;;;;;;;36.35;33.55;;;;;;;25.15;100.00;100464.38;5007205;28;20406;-84
2022/06/10 09:17:37;;;;;;;37.30;34.67;;;;;;;25.10;100.00;100470.69;5011833;28;20058;-85
2022/06/10 09:20:10;;;;;;;34.20;31.45;;;;;;;24.81;100.00;100457.53;5007579;28;20046;-86
2022/06/10 09:22:44;;;;;;;37.33;34.92;;;;;;;24.88;100.00;100472.31;5010719;28;20488;-85
2022/06/10 09:25:13;;;;;;;35.92;33.35;;;;;;;25.09;100.00;100460.94;5009246;28;20046;-84
2022/06/10 09:27:45;;;;;;;33.67;31.38;;;;;;;25.01;100.00;100464.41;5016863;28;20095;-84
2022/06/10 09:30:15;;;;;;;33.70;31.23;;;;;;;24.71;100.00;100461.28;5013278;28;20054;-85
2022/06/10 09:32:51;;;;;;;37.05;34.60;;;;;;;24.78;100.00;100466.28;5015016;28;20050;-84
2022/06/10 09:35:25;;;;;;;37.08;34.45;;;;;;;24.78;100.00;100461.69;5015193;28;20038;-83
2022/06/10 09:37:57;;;;;;;32.47;30.55;;;;;;;24.63;100.00;100456.56;5013546;28;20137;-81
2022/06/10 09:40:36;;;;;;;33.65;31.40;;;;;;;24.56;100.00;100459.72;5015310;28;20054;-84
2022/06/10 09:43:43;;;;;;;32.55;30.45;;;;;;;25.00;100.00;100460.09;5016495;28;20060;-84
2022/06/10 09:46:34;;;;;;;32.60;30.40;;;;;;;25.77;100.00;100470.59;5015463;28;20050;-86
2022/06/10 09:49:18;;;;;;;35.58;33.28;;;;;;;26.37;100.00;100466.50;5002827;28;20046;-84
2022/06/10 09:51:57;;;;;;;32.90;30.30;;;;;;;25.88;100.00;100470.38;5012491;28;20482;-85
2022/06/10 09:54:45;;;;;;;30.33;28.15;;;;;;;25.45;100.00;100465.53;5015213;28;20064;-84
2022/06/10 09:57:45;;;;;;;31.00;28.90;;;;;;;24.90;100.00;100464.66;5014819;28;20321;-82
2022/06/10 10:00:18;;;;;;;31.15;29.10;;;;;;;24.60;100.00;100465.34;5008656;28;20050;-83
2022/06/10 10:02:58;;;;;;;29.80;27.80;;;;;;;24.49;100.00;100466.69;5006921;28;20037;-84
2022/06/10 10:05:39;;;;;;;30.92;28.30;;;;;;;24.42;100.00;100467.91;5012937;28;20050;-84
2022/06/10 10:08:17;;;;;;;32.80;30.55;;;;;;;25.01;100.00;100462.47;5009660;28;20050;-85
2022/06/10 10:10:50;;;;;;;29.83;27.92;;;;;;;24.94;100.00;100464.03;5012825;28;20053;-83
2022/06/10 10:13:57;;;;;;;31.70;29.80;;;;;;;24.74;100.00;100466.09;5015805;28;20042;-83
2022/06/10 10:16:40;;;;;;;31.83;29.75;;;;;;;24.64;100.00;100461.72;5016390;28;20046;-85
2022/06/10 10:19:20;;;;;;;31.98;29.52;;;;;;;24.97;100.00;100461.50;5013609;28;20048;-83
2022/06/10 10:21:54;;;;;;;30.38;28.08;;;;;;;24.96;100.00;100470.75;5014306;28;20056;-82
2022/06/10 10:24:25;;;;;;;30.13;28.13;;;;;;;25.09;100.00;100469.91;5005164;28;20047;-83
2022/06/10 10:26:53;;;;;;;30.15;27.90;;;;;;;25.01;100.00;100464.41;5013621;28;20066;-82
2022/06/10 10:29:22;;;;;;;29.05;26.73;;;;;;;25.05;100.00;100471.63;5016491;28;20422;-84
2022/06/10 10:32:05;;;;;;;32.53;30.42;;;;;;;25.09;100.00;100464.47;5015563;28;20053;-81
2022/06/10 10:34:36;;;;;;;32.88;30.58;;;;;;;24.51;100.00;100472.59;5002820;28;20055;-81
2022/06/10 10:37:11;;;;;;;33.70;31.33;;;;;;;24.53;100.00;100468.47;5011191;28;20041;-84
2022/06/10 10:39:39;;;;;;;36.28;33.58;;;;;;;24.33;100.00;100483.28;5007507;28;20046;-86
2022/06/10 10:42:14;;;;;;;38.08;35.08;;;;;;;23.94;100.00;100478.38;5005651;28;20050;-87
2022/06/10 10:44:45;;;;;;;39.40;36.40;;;;;;;23.85;100.00;100480.19;5003369;28;20053;-84
2022/06/10 10:47:23;;;;;;;38.33;35.78;;;;;;;23.99;100.00;100478.25;5010478;28;20454;-82
2022/06/10 10:49:52;;;;;;;38.22;35.72;;;;;;;23.65;100.00;100481.31;5008562;28;20046;-82
2022/06/10 10:52:24;;;;;;;35.20;33.00;;;;;;;23.80;100.00;100466.72;5008214;28;20038;-83
2022/06/10 10:54:54;;;;;;;34.88;32.42;;;;;;;24.17;100.00;100460.25;5006913;28;20054;-84
2022/06/10 10:57:26;;;;;;;35.58;33.03;;;;;;;24.54;100.00;100466.56;5015894;28;20061;-84
2022/06/10 11:00:25;;;;;;;37.60;35.10;;;;;;;25.39;100.00;100467.56;5011590;28;20552;-82
2022/06/10 11:02:56;;;;;;;36.58;34.25;;;;;;;25.34;100.00;100457.59;5007918;28;20050;-82
2022/06/10 11:05:31;;;;;;;36.22;33.92;;;;;;;25.50;100.00;100459.94;5012725;28;20054;-82
2022/06/10 11:08:21;;;;;;;35.40;33.08;;;;;;;25.74;100.00;100457.63;5013048;28;20053;-84
2022/06/10 11:10:55;;;;;;;38.90;36.40;;;;;;;25.83;100.00;100465.06;5014193;28;20445;-84
2022/06/10 11:13:30;;;;;;;36.50;34.08;;;;;;;25.81;100.00;100468.91;5014476;28;20049;-81
2022/06/10 11:16:17;;;;;;;35.33;33.05;;;;;;;26.08;100.00;100453.47;5004435;28;20049;-85
2022/06/10 11:18:47;;;;;;;30.85;28.75;;;;;;;25.90;100.00;100447.19;5005887;28;20545;-83
2022/06/10 11:21:14;;;;;;;33.75;30.95;;;;;;;26.39;100.00;100445.22;5006438;28;20113;-86
2022/06/10 11:23:51;;;;;;;29.92;28.05;;;;;;;26.25;100.00;100444.53;5007351;28;20050;-86
2022/06/10 11:26:21;;;;;;;32.72;30.65;;;;;;;25.89;100.00;100450.22;5006235;28;20061;-84
2022/06/10 11:28:49;;;;;;;29.67;27.88;;;;;;;26.35;100.00;100448.88;5011719;28;20046;-85
2022/06/10 11:31:19;;;;;;;30.70;28.70;;;;;;;26.17;100.00;100448.03;5010044;28;20074;-84
2022/06/10 11:33:51;;;;;;;30.00;27.50;;;;;;;25.83;100.00;100432.44;4997389;28;20379;-84
2022/06/10 11:36:25;;;;;;;28.55;26.65;;;;;;;25.77;100.00;100434.44;5005449;28;20057;-85
2022/06/10 11:38:54;;;;;;;31.63;29.40;;;;;;;26.36;100.00;100421.34;5008857;28;20050;-83
2022/06/10 11:41:29;;;;;;;29.20;27.42;;;;;;;26.50;100.00;100430.16;5013672;28;20065;-84